Sao Luis do Quitunde, Brazil
Current Conditions -  °F | °C
As of 10:00 PM on Monday 26 Jan 2015 (Local Time) from SBMO Reporting Station
Few Clouds Few Clouds  
Wind Chill: 72°   Ceiling: Unl
Heat Index: 72°   Visibility: 6mi
Dew Point: 70°   Wind: 3mph
Humidity: 94%   Direction: 30°NNE
Pressure: 30"   Gusts: NA
Location:  9.32°S, 35.56°W
Report Text: SBMO 270100Z 03003KT 9999 FEW020 22/21 Q1016
Loading
Personal Weather Stations






























Interactive Weather Map New forecast layout! Learn more

10-Day Weather Forecast

Advertisements
Track Severe Weather on mobile